Chatham, Canada
Current Conditions -  °F | °C
As of 7:00 AM on Friday 19 Dec 2014 (Local Time) from CYCK Reporting Station
Overcast Overcast  
Wind Chill: 20°   Ceiling: 2600
Heat Index: 28°   Visibility: 9mi
Dew Point: 25°   Wind: 9mph
Humidity: 86%   Direction: 310°NW
Pressure: 30.22"   Gusts: NA
Location:  42.4°N, 82.19°W
Report Text: CYCK 191200Z AUTO 31008KT 9SM OVC026 M02/M04 A3022 RMK SLP241
Loading
Personal Weather Stations






























Interactive Weather Map New forecast layout! Learn more

10-Day Weather Forecast

Advertisements
Track Severe Weather on mobile